Time;durP1;ratioP1;P1;durP2;ratioP2;P2;SDS_P1;SDS_P2;PMS_P1;PMS_P2;Temp;Humidity;BMP_temperature;BMP_pressure;BME280_temperature;BME280_humidity;BME280_pressure;Samples;Min_cycle;Max_cycle;Signal;HPM_P1;HPM_P2
2021/05/25 00:01:12;;;;;;;8.55;3.75;;;;;;;15.06;66.94;99726.12;1827805;78;21150;-63
2021/05/25 00:03:47;;;;;;;7.90;3.98;;;;;;;15.06;67.08;99726.12;1890032;76;22155;-62
2021/05/25 00:06:21;;;;;;;8.35;3.67;;;;;;;14.90;67.45;99723.88;1889912;76;22156;-61
2021/05/25 00:08:57;;;;;;;8.03;3.92;;;;;;;14.74;68.35;99726.38;1870685;76;22105;-62
2021/05/25 00:11:31;;;;;;;7.83;3.58;;;;;;;14.60;68.99;99728.01;1889924;76;22139;-63
2021/05/25 00:14:06;;;;;;;9.03;3.80;;;;;;;14.49;69.36;99725.74;1870625;76;22201;-61
2021/05/25 00:16:41;;;;;;;9.30;3.20;;;;;;;14.41;69.84;99718.33;1870607;76;22168;-61
2021/05/25 00:19:17;;;;;;;6.22;2.87;;;;;;;14.38;69.92;99716.58;1870549;76;22156;-60
2021/05/25 00:21:52;;;;;;;6.58;2.83;;;;;;;14.43;69.96;99723.11;1889961;76;20211;-63
2021/05/25 00:24:28;;;;;;;5.97;3.05;;;;;;;14.49;69.88;99717.95;1870395;76;20102;-61
2021/05/25 00:27:03;;;;;;;6.25;2.90;;;;;;;14.56;69.60;99720.21;1870640;76;22108;-62
2021/05/25 00:29:48;;;;;;;6.55;2.70;;;;;;;14.56;69.14;99725.41;1827477;78;21126;-62
2021/05/25 00:32:23;;;;;;;6.03;2.65;;;;;;;14.64;68.79;99726.31;1870665;76;22113;-63
2021/05/25 00:34:58;;;;;;;7.00;3.20;;;;;;;14.71;68.69;99732.00;1854569;76;28331;-63
2021/05/25 00:37:33;;;;;;;5.67;3.33;;;;;;;14.78;68.13;99732.45;1870626;76;22116;-62
2021/05/25 00:40:11;;;;;;;5.70;3.33;;;;;;;14.68;68.24;99731.95;1889910;76;22148;-62
2021/05/25 00:42:46;;;;;;;8.35;3.77;;;;;;;14.50;68.74;99730.96;1870824;76;22120;-63
2021/05/25 00:45:21;;;;;;;9.15;3.92;;;;;;;14.36;69.19;99731.27;1870717;76;22138;-62
2021/05/25 00:47:56;;;;;;;7.60;4.00;;;;;;;14.27;69.67;99732.08;1870544;76;22575;-64
2021/05/25 00:50:31;;;;;;;7.08;3.25;;;;;;;14.16;70.06;99728.94;1889920;76;22581;-62
2021/05/25 00:53:06;;;;;;;7.53;3.08;;;;;;;14.06;70.48;99728.84;1870739;76;22193;-63
2021/05/25 00:55:41;;;;;;;7.53;3.25;;;;;;;14.03;70.71;99734.02;1870639;76;22125;-63
2021/05/25 00:58:16;;;;;;;5.58;2.90;;;;;;;14.05;70.72;99728.85;1870621;76;22552;-62
2021/05/25 01:00:51;;;;;;;6.00;2.55;;;;;;;14.05;70.90;99728.42;1870579;76;22213;-63
2021/05/25 01:03:32;;;;;;;5.70;2.60;;;;;;;14.08;71.14;99727.14;1889903;76;22160;-62
2021/05/25 01:06:07;;;;;;;5.45;2.58;;;;;;;14.19;71.21;99730.25;1870572;76;22164;-61
2021/05/25 01:08:42;;;;;;;9.33;2.67;;;;;;;14.28;70.92;99731.21;1889924;76;22136;-62
2021/05/25 01:11:19;;;;;;;6.87;2.42;;;;;;;14.32;70.87;99726.90;1889949;76;22563;-63
2021/05/25 01:14:06;;;;;;;5.15;3.12;;;;;;;14.29;70.86;99734.23;1791744;80;21580;-62
2021/05/25 01:16:40;;;;;;;7.28;2.92;;;;;;;14.35;70.71;99728.25;1889885;76;22143;-61
2021/05/25 01:19:15;;;;;;;4.78;2.98;;;;;;;14.33;70.79;99732.55;1870653;76;22146;-63
2021/05/25 01:21:50;;;;;;;7.92;2.50;;;;;;;14.32;70.64;99725.59;1889939;76;22214;-62
2021/05/25 01:24:33;;;;;;;4.95;2.52;;;;;;;14.32;70.47;99723.90;1854585;76;28319;-61
2021/05/25 01:27:09;;;;;;;4.15;2.12;;;;;;;14.33;70.31;99724.33;1870627;76;22555;-63
2021/05/25 01:29:43;;;;;;;4.67;2.42;;;;;;;14.32;70.30;99724.30;1889966;76;22140;-61
2021/05/25 01:32:18;;;;;;;4.03;1.92;;;;;;;14.29;70.34;99727.74;1870684;76;22133;-63
2021/05/25 01:35:06;;;;;;;4.08;1.80;;;;;;;14.22;69.96;99731.58;1827519;77;21134;-60
2021/05/25 01:37:40;;;;;;;6.87;1.98;;;;;;;14.23;70.32;99732.03;1889964;76;22119;-61
2021/05/25 01:40:36;;;;;;;5.35;2.80;;;;;;;14.27;70.33;99733.38;1869574;75;22206;-62
2021/05/25 01:43:22;;;;;;;5.97;2.05;;;;;;;14.27;70.16;99729.89;1784142;80;21300;-63
2021/05/25 01:45:57;;;;;;;5.75;2.35;;;;;;;14.37;69.93;99721.31;1870666;76;22104;-62
2021/05/25 01:48:32;;;;;;;6.20;2.15;;;;;;;14.36;69.79;99728.67;1870557;76;22164;-61
2021/05/25 01:51:13;;;;;;;6.62;2.20;;;;;;;14.36;69.58;99731.70;1869744;76;22176;-60
2021/05/25 01:53:47;;;;;;;4.08;1.82;;;;;;;14.37;69.32;99726.94;1870645;76;22168;-62
2021/05/25 01:56:23;;;;;;;6.55;2.33;;;;;;;14.40;68.95;99720.06;1870582;76;22168;-61
2021/05/25 01:58:57;;;;;;;5.97;1.90;;;;;;;14.41;69.00;99724.39;1870614;76;22149;-62
2021/05/25 02:01:32;;;;;;;3.75;1.92;;;;;;;14.44;69.02;99730.90;1870761;76;22151;-63
2021/05/25 02:04:08;;;;;;;5.50;3.05;;;;;;;14.49;69.01;99732.23;1854561;76;27914;-64
2021/05/25 02:06:42;;;;;;;4.75;2.17;;;;;;;14.59;68.87;99732.77;1835062;77;22605;-62
2021/05/25 02:09:17;;;;;;;6.53;3.58;;;;;;;14.62;68.93;99734.09;1870678;76;22163;-61
2021/05/25 02:12:06;;;;;;;6.58;2.62;;;;;;;14.62;68.97;99731.92;1827812;78;21240;-61
2021/05/25 02:14:41;;;;;;;7.22;3.08;;;;;;;14.76;69.01;99731.59;1889950;76;20097;-61
2021/05/25 02:17:16;;;;;;;4.85;2.37;;;;;;;14.81;68.85;99731.20;1870656;76;22144;-62
2021/05/25 02:19:51;;;;;;;7.12;3.10;;;;;;;14.82;68.75;99734.22;1854573;76;28331;-62
2021/05/25 02:22:37;;;;;;;5.37;2.98;;;;;;;14.84;68.59;99735.11;1827814;78;21103;-61
2021/05/25 02:25:12;;;;;;;7.83;3.17;;;;;;;14.89;67.57;99735.14;1889922;76;22523;-61
2021/05/25 02:27:47;;;;;;;5.60;2.50;;;;;;;14.64;67.27;99736.71;1870650;76;22173;-64
2021/05/25 02:30:23;;;;;;;6.17;2.37;;;;;;;14.48;67.90;99727.48;1870551;76;22555;-62
2021/05/25 02:33:00;;;;;;;5.10;2.50;;;;;;;14.62;68.45;99725.43;1873826;76;27904;-63
2021/05/25 02:35:48;;;;;;;5.00;2.35;;;;;;;14.82;67.31;99739.42;1861565;77;21276;-61
2021/05/25 02:38:24;;;;;;;8.53;3.10;;;;;;;14.95;67.33;99738.62;1870635;76;22580;-62
2021/05/25 02:41:01;;;;;;;5.67;2.70;;;;;;;15.04;67.04;99747.36;1870447;76;22192;-62
2021/05/25 02:43:37;;;;;;;5.95;2.95;;;;;;;15.17;67.12;99745.25;1870416;76;22139;-61
2021/05/25 02:46:11;;;;;;;6.97;2.83;;;;;;;15.33;66.32;99734.48;1870592;76;22567;-62
2021/05/25 02:48:48;;;;;;;6.25;3.05;;;;;;;15.37;65.83;99735.81;1870717;76;22539;-62
2021/05/25 02:51:23;;;;;;;7.75;3.25;;;;;;;15.47;65.85;99743.63;1889919;76;22112;-62
2021/05/25 02:53:57;;;;;;;5.50;2.72;;;;;;;15.54;64.77;99746.69;1889943;76;22546;-61
2021/05/25 02:56:32;;;;;;;6.42;2.92;;;;;;;15.47;64.64;99739.73;1835054;77;22176;-61
2021/05/25 02:59:06;;;;;;;12.15;2.80;;;;;;;15.33;64.80;99739.25;1870653;76;22126;-62
2021/05/25 03:01:41;;;;;;;7.53;2.72;;;;;;;15.22;64.88;99744.84;1870696;76;22145;-62
2021/05/25 03:04:16;;;;;;;5.28;2.42;;;;;;;15.14;64.85;99750.45;1870903;76;22200;-61
2021/05/25 03:06:50;;;;;;;5.37;2.30;;;;;;;15.14;64.68;99751.75;1870753;76;22586;-62
2021/05/25 03:09:36;;;;;;;7.20;2.37;;;;;;;15.18;64.67;99753.48;1827732;78;21691;-62
2021/05/25 03:12:10;;;;;;;7.45;3.05;;;;;;;15.40;64.56;99751.86;1889951;76;22140;-64
2021/05/25 03:14:45;;;;;;;9.58;2.92;;;;;;;15.63;63.96;99753.23;1870716;76;22139;-63
2021/05/25 03:17:22;;;;;;;7.45;2.90;;;;;;;15.78;63.15;99752.45;1870702;76;22167;-63
2021/05/25 03:20:10;;;;;;;7.67;3.55;;;;;;;15.86;63.19;99762.88;1827747;78;21536;-64
2021/05/25 03:22:45;;;;;;;7.05;3.02;;;;;;;16.05;62.87;99758.13;1870781;76;22137;-62
2021/05/25 03:25:20;;;;;;;8.58;2.87;;;;;;;16.14;62.14;99760.75;1870723;76;22177;-63
2021/05/25 03:27:56;;;;;;;8.68;3.45;;;;;;;16.23;61.97;99763.38;1854581;76;27962;-63
2021/05/25 03:30:31;;;;;;;7.90;3.30;;;;;;;16.36;61.83;99759.45;1870640;76;22145;-62
2021/05/25 03:33:07;;;;;;;8.55;3.75;;;;;;;16.43;61.25;99762.50;1819417;77;28492;-62
2021/05/25 03:35:47;;;;;;;8.63;3.05;;;;;;;16.54;60.62;99765.99;1869747;76;22163;-63
2021/05/25 03:38:22;;;;;;;6.08;2.83;;;;;;;16.60;60.03;99766.41;1870734;76;22163;-64
2021/05/25 03:40:57;;;;;;;6.33;2.60;;;;;;;16.63;59.54;99765.97;1870643;76;22218;-62
2021/05/25 03:43:31;;;;;;;10.93;3.10;;;;;;;16.62;59.03;99762.08;1870646;76;22156;-61
2021/05/25 03:46:06;;;;;;;8.33;3.10;;;;;;;16.66;58.67;99765.09;1870723;76;22153;-61
2021/05/25 03:48:40;;;;;;;8.75;2.80;;;;;;;16.61;58.82;99766.42;1870616;76;22181;-63
2021/05/25 03:51:15;;;;;;;9.90;3.55;;;;;;;16.55;58.41;99770.77;1889936;76;22151;-63
2021/05/25 03:53:51;;;;;;;9.33;3.25;;;;;;;16.38;59.09;99774.66;1850918;77;22615;-62
2021/05/25 03:56:30;;;;;;;10.35;2.72;;;;;;;16.24;59.16;99771.62;1889893;76;22603;-63
2021/05/25 03:59:01;;;;;;;10.30;2.95;;;;;;;16.20;59.62;99767.26;1870787;76;22548;-64
2021/05/25 04:01:36;;;;;;;9.50;3.02;;;;;;;16.21;59.49;99769.02;1889908;76;22112;-63
2021/05/25 04:04:11;;;;;;;10.13;3.90;;;;;;;16.28;59.89;99765.55;1854745;76;27941;-62
2021/05/25 04:06:46;;;;;;;6.72;2.50;;;;;;;16.52;59.81;99764.25;1889944;76;22139;-63
2021/05/25 04:09:33;;;;;;;11.63;2.75;;;;;;;16.62;58.86;99760.33;1861165;77;21541;-62
2021/05/25 04:12:09;;;;;;;12.45;3.52;;;;;;;16.84;57.75;99758.61;1870616;76;22141;-61
2021/05/25 04:14:44;;;;;;;9.45;3.22;;;;;;;16.92;57.93;99759.90;1870668;76;22149;-62
2021/05/25 04:17:18;;;;;;;9.45;3.22;;;;;;;17.11;57.30;99762.88;1890046;76;22132;-64
2021/05/25 04:19:53;;;;;;;8.15;3.20;;;;;;;17.22;57.37;99759.36;1870612;76;22116;-63
2021/05/25 04:22:27;;;;;;;11.08;3.47;;;;;;;17.26;56.74;99754.58;1889946;76;22559;-63
2021/05/25 04:25:04;;;;;;;14.13;3.15;;;;;;;17.36;56.08;99751.06;1870641;76;22152;-62
2021/05/25 04:27:39;;;;;;;6.45;3.08;;;;;;;17.51;55.85;99754.05;1870703;76;22108;-62
2021/05/25 04:30:21;;;;;;;12.33;2.87;;;;;;;17.64;55.76;99751.80;1869737;76;22575;-61
2021/05/25 04:32:56;;;;;;;8.70;2.85;;;;;;;17.61;55.01;99750.97;1870753;76;20097;-61
2021/05/25 04:35:37;;;;;;;8.30;3.00;;;;;;;17.67;55.50;99753.53;1889833;76;22196;-63
2021/05/25 04:38:12;;;;;;;5.85;2.52;;;;;;;17.75;55.33;99754.35;1870642;76;22141;-65
2021/05/25 04:40:47;;;;;;;10.15;3.30;;;;;;;17.83;55.29;99757.81;1889908;76;22566;-63
2021/05/25 04:43:22;;;;;;;7.17;3.10;;;;;;;17.87;54.97;99754.77;1870521;76;20208;-65
2021/05/25 04:45:57;;;;;;;9.75;2.25;;;;;;;17.82;55.22;99756.09;1870532;76;22160;-66
2021/05/25 04:48:32;;;;;;;6.10;2.70;;;;;;;17.83;55.57;99742.59;1870606;76;22560;-63
2021/05/25 04:51:07;;;;;;;10.25;2.80;;;;;;;17.92;55.44;99739.48;1870619;76;22180;-63
2021/05/25 04:53:41;;;;;;;11.08;2.58;;;;;;;18.10;54.59;99742.86;1870588;76;22141;-62
2021/05/25 04:56:16;;;;;;;6.62;2.77;;;;;;;18.10;53.41;99742.86;1889928;76;22372;-63
2021/05/25 04:58:50;;;;;;;6.70;2.52;;;;;;;17.92;53.43;99742.10;1870670;76;22599;-62
2021/05/25 05:01:26;;;;;;;9.13;2.33;;;;;;;17.81;53.36;99740.01;1870696;76;22195;-62
2021/05/25 05:04:11;;;;;;;7.53;2.30;;;;;;;17.80;53.53;99740.87;1827535;78;21285;-62
2021/05/25 05:06:46;;;;;;;6.60;2.37;;;;;;;18.14;53.87;99734.10;1870579;76;22100;-63
2021/05/25 05:09:21;;;;;;;7.75;2.00;;;;;;;18.58;53.28;99732.89;1863415;76;22632;-63
2021/05/25 05:11:54;;;;;;;6.17;2.45;;;;;;;18.93;51.84;99736.91;1853967;76;22172;-61
2021/05/25 05:14:29;;;;;;;6.22;1.62;;;;;;;19.11;51.02;99730.19;1852209;76;22608;-63
2021/05/25 05:17:03;;;;;;;6.05;1.98;;;;;;;19.37;50.14;99736.41;1849487;76;22203;-63
2021/05/25 05:19:58;;;;;;;6.60;2.25;;;;;;;19.83;48.77;99748.06;1842028;75;22228;-65
2021/05/25 05:22:53;;;;;;;6.25;1.87;;;;;;;19.88;48.93;99743.17;1889839;76;22212;-63
2021/05/25 05:25:27;;;;;;;6.40;1.70;;;;;;;19.94;47.41;99734.35;1870657;76;22543;-64
2021/05/25 05:28:02;;;;;;;9.90;2.33;;;;;;;19.80;47.19;99748.12;1889849;76;22135;-63
2021/05/25 05:30:48;;;;;;;7.78;1.70;;;;;;;19.44;47.45;99755.54;1836745;77;21611;-65
2021/05/25 05:33:23;;;;;;;5.12;1.70;;;;;;;19.21;48.57;99747.52;1870564;76;22160;-63
2021/05/25 05:36:18;;;;;;;4.95;2.00;;;;;;;19.35;48.30;99742.11;1874203;75;22198;-64
2021/05/25 05:38:53;;;;;;;6.67;1.98;;;;;;;19.58;48.30;99738.33;1792816;77;28135;-65
2021/05/25 05:41:27;;;;;;;5.40;1.62;;;;;;;19.93;47.89;99737.42;1853053;76;22202;-65
2021/05/25 05:44:02;;;;;;;3.05;1.12;;;;;;;20.53;46.54;99744.34;1855442;76;22171;-67
2021/05/25 05:46:38;;;;;;;7.47;2.15;;;;;;;21.19;44.28;99740.53;1841272;76;20369;-64
2021/05/25 05:49:23;;;;;;;4.15;1.40;;;;;;;21.83;43.29;99734.39;1819285;78;21284;-64
2021/05/25 05:51:58;;;;;;;4.45;1.20;;;;;;;22.50;39.90;99740.27;1870765;76;22144;-65
2021/05/25 05:54:53;;;;;;;5.85;1.90;;;;;;;22.30;40.20;99732.42;1859308;75;22284;-65
2021/05/25 16:41:46;;;;;;;3.67;1.70;;;;;;;21.24;49.60;99274.04;1834873;77;22159;-63
2021/05/25 16:44:21;;;;;;;4.80;1.50;;;;;;;21.12;49.79;99265.19;1870592;76;22161;-65
2021/05/25 16:46:57;;;;;;;7.15;1.60;;;;;;;20.99;49.82;99281.71;1873772;76;28027;-65
2021/05/25 16:49:38;;;;;;;3.62;1.50;;;;;;;20.91;50.32;99265.28;1869624;76;22164;-65
2021/05/25 16:52:13;;;;;;;2.65;1.27;;;;;;;20.96;50.20;99268.67;1870524;76;22566;-65
2021/05/25 16:54:48;;;;;;;6.90;1.40;;;;;;;20.92;50.26;99272.27;1889901;76;22132;-65
2021/05/25 16:57:23;;;;;;;4.33;1.40;;;;;;;20.76;50.91;99269.19;1889844;76;22148;-65
2021/05/25 16:59:58;;;;;;;4.22;1.40;;;;;;;20.80;50.91;99270.81;1870528;76;22149;-65
2021/05/25 17:14:06;;;;;;;2.25;1.10;;;;;;;20.44;51.73;99269.09;1889909;76;22195;-66
2021/05/25 17:19:26;;;;;;;6.08;1.50;;;;;;;20.30;52.22;99262.86;1870571;76;22156;-65
2021/05/25 17:22:13;;;;;;;4.45;1.47;;;;;;;20.15;52.50;99282.45;1827835;78;21126;-64
2021/05/25 17:27:22;;;;;;;3.20;1.25;;;;;;;20.05;53.03;99254.28;1889935;76;22116;-64
2021/05/25 17:29:57;;;;;;;3.02;1.22;;;;;;;20.01;53.35;99266.17;1870606;76;22149;-67
2021/05/25 17:32:39;;;;;;;3.77;1.50;;;;;;;19.92;53.62;99265.91;1869701;76;22181;-65
2021/05/25 17:35:14;;;;;;;5.50;1.40;;;;;;;19.85;53.81;99257.34;1870561;76;22271;-65
2021/05/25 17:37:50;;;;;;;7.60;1.80;;;;;;;19.82;54.12;99269.63;1870716;76;22533;-65
2021/05/25 17:40:25;;;;;;;3.80;1.42;;;;;;;19.76;54.29;99256.67;1849822;76;28090;-66
2021/05/25 17:42:59;;;;;;;6.95;1.47;;;;;;;19.71;54.54;99256.31;1852254;76;22108;-66
2021/05/25 17:45:40;;;;;;;5.42;1.37;;;;;;;19.67;54.85;99258.61;1851290;76;22148;-66
2021/05/25 17:48:14;;;;;;;6.78;1.57;;;;;;;19.61;55.10;99258.69;1855500;76;22606;-64
2021/05/25 17:50:49;;;;;;;7.22;1.98;;;;;;;19.57;55.16;99267.52;1854149;76;22156;-68
2021/05/25 17:53:24;;;;;;;3.77;1.60;;;;;;;19.55;55.39;99258.83;1853361;76;22176;-68
2021/05/25 17:55:59;;;;;;;5.92;1.90;;;;;;;19.49;55.72;99262.44;1836459;76;27884;-66
2021/05/25 17:58:40;;;;;;;5.40;2.00;;;;;;;19.46;55.98;99260.31;1851480;76;22257;-67
2021/05/25 18:01:14;;;;;;;6.12;1.70;;;;;;;19.40;56.25;99266.99;1863286;76;22566;-67
2021/05/25 18:03:49;;;;;;;3.25;1.80;;;;;;;19.36;56.64;99264.01;1870519;76;22149;-68
2021/05/25 18:06:32;;;;;;;7.47;2.20;;;;;;;19.31;56.83;99264.13;1846003;76;22160;-67
2021/05/25 18:09:08;;;;;;;9.33;1.87;;;;;;;19.27;57.12;99263.30;1869539;76;22168;-67
2021/05/25 18:11:45;;;;;;;5.15;2.05;;;;;;;19.23;57.35;99258.16;1870550;76;22204;-66
2021/05/25 18:14:22;;;;;;;4.55;2.02;;;;;;;19.19;57.56;99263.05;1870424;76;22604;-66
2021/05/25 18:16:56;;;;;;;6.42;2.95;;;;;;;19.14;57.84;99274.91;1855049;76;22589;-66
2021/05/25 18:19:31;;;;;;;10.20;2.17;;;;;;;19.10;58.07;99264.07;1870413;76;22149;-68
2021/05/25 18:22:12;;;;;;;6.80;2.10;;;;;;;19.07;58.26;99266.75;1889886;76;22263;-65
2021/05/25 18:24:54;;;;;;;8.10;2.22;;;;;;;19.01;58.55;99266.88;1889666;76;22171;-68
2021/05/25 18:27:28;;;;;;;9.05;2.20;;;;;;;18.97;58.77;99274.35;1870461;76;22153;-66
2021/05/25 18:30:05;;;;;;;6.50;2.05;;;;;;;18.95;58.97;99278.29;1889721;76;22148;-68
2021/05/25 18:32:49;;;;;;;4.22;2.10;;;;;;;18.95;59.13;99283.97;1870424;76;22145;-68
2021/05/25 18:35:32;;;;;;;8.63;2.00;;;;;;;18.93;59.14;99285.74;1889753;76;22574;-67
2021/05/25 18:43:48;;;;;;;10.43;2.00;;;;;;;18.85;59.55;99276.31;1870439;76;22542;-66
2021/05/25 18:46:22;;;;;;;12.00;2.25;;;;;;;18.82;59.77;99275.03;1870570;76;22231;-65
2021/05/25 18:48:57;;;;;;;5.22;1.92;;;;;;;18.77;59.76;99266.41;1870470;76;22156;-67
2021/05/25 18:51:37;;;;;;;10.15;2.12;;;;;;;18.75;59.88;99268.20;1869657;76;22164;-67
2021/05/25 18:54:13;;;;;;;5.60;2.17;;;;;;;18.72;59.96;99268.20;1870463;76;22149;-67
2021/05/25 18:59:29;;;;;;;6.30;1.72;;;;;;;18.71;60.00;99263.02;1889746;76;22136;-67
2021/05/25 19:02:07;;;;;;;5.92;2.22;;;;;;;18.69;60.26;99266.09;1870517;76;22217;-65
2021/05/25 19:04:41;;;;;;;6.62;1.52;;;;;;;18.63;60.43;99271.85;1870508;76;22153;-67
2021/05/25 19:07:16;;;;;;;4.00;1.80;;;;;;;18.60;60.60;99269.74;1889789;76;22140;-67
2021/05/25 19:10:05;;;;;;;6.53;2.37;;;;;;;18.52;60.69;99276.41;1861131;77;21142;-67
2021/05/25 19:12:42;;;;;;;4.75;1.82;;;;;;;18.54;60.99;99269.37;1870339;76;22590;-68
2021/05/25 19:15:19;;;;;;;6.78;1.90;;;;;;;18.54;60.99;99265.91;1870530;76;22172;-65
2021/05/25 19:18:00;;;;;;;8.30;2.40;;;;;;;18.50;61.24;99264.25;1889712;76;22592;-67
2021/05/25 19:20:49;;;;;;;5.62;2.20;;;;;;;18.50;61.15;99270.78;1854623;76;27936;-66
2021/05/25 19:23:22;;;;;;;5.17;2.05;;;;;;;18.53;61.06;99275.50;1870572;76;22646;-67
2021/05/25 19:28:53;;;;;;;8.58;2.17;;;;;;;18.51;61.40;99270.73;1889722;76;22609;-67
2021/05/25 19:31:28;;;;;;;8.55;2.17;;;;;;;18.47;61.37;99261.24;1889810;76;22175;-67
2021/05/25 19:34:10;;;;;;;11.22;2.37;;;;;;;18.47;61.57;99265.58;1869655;76;22178;-68
2021/05/25 19:36:45;;;;;;;11.08;2.52;;;;;;;18.46;61.63;99252.11;1873668;76;28108;-66
2021/05/25 19:39:21;;;;;;;5.03;1.57;;;;;;;18.49;61.44;99252.05;1870426;76;22167;-67
2021/05/25 19:42:04;;;;;;;4.65;2.02;;;;;;;18.50;61.39;99257.27;1889792;76;22164;-68
2021/05/25 19:44:38;;;;;;;8.98;2.20;;;;;;;18.48;61.53;99257.73;1870585;76;20208;-68
2021/05/25 19:47:13;;;;;;;7.92;2.35;;;;;;;18.48;61.57;99247.73;1866009;76;22215;-67
2021/05/25 19:49:47;;;;;;;6.45;1.92;;;;;;;18.48;61.36;99251.20;1852707;76;22164;-67
2021/05/25 19:52:22;;;;;;;4.83;1.92;;;;;;;18.48;61.51;99242.50;1854464;76;22272;-67
2021/05/25 19:54:57;;;;;;;8.68;2.20;;;;;;;18.47;61.56;99245.98;1863809;76;22571;-68
2021/05/25 19:57:31;;;;;;;7.35;2.08;;;;;;;18.42;61.54;99246.94;1852207;76;22251;-68
2021/05/25 20:00:07;;;;;;;13.03;2.47;;;;;;;18.44;61.66;99245.17;1889880;76;22147;-67
2021/05/25 20:02:53;;;;;;;6.47;2.72;;;;;;;18.38;61.55;99237.41;1861345;77;21576;-65
2021/05/25 20:05:34;;;;;;;8.78;3.02;;;;;;;18.43;61.48;99236.89;1869729;76;22563;-66
2021/05/25 20:08:09;;;;;;;7.03;2.35;;;;;;;18.42;61.76;99240.41;1873759;76;27932;-68
2021/05/25 20:10:45;;;;;;;9.08;2.37;;;;;;;18.40;61.62;99238.25;1870568;76;22144;-67
2021/05/25 20:13:27;;;;;;;5.65;2.27;;;;;;;18.42;61.68;99233.02;1890083;76;22188;-76
2021/05/25 20:16:14;;;;;;;6.22;2.25;;;;;;;18.37;61.63;99231.78;1861010;77;21086;-64
2021/05/25 20:18:50;;;;;;;11.15;2.65;;;;;;;18.40;61.51;99234.34;1854396;76;27938;-63
2021/05/25 20:21:26;;;;;;;8.85;2.25;;;;;;;18.44;61.39;99242.56;1889799;76;20101;-63
2021/05/25 20:24:20;;;;;;;10.00;3.25;;;;;;;18.44;61.34;99246.89;1855738;75;22198;-65
2021/05/25 20:26:56;;;;;;;6.80;2.10;;;;;;;18.43;61.28;99239.95;1856332;76;22156;-66
2021/05/25 20:29:43;;;;;;;14.18;2.25;;;;;;;18.38;61.27;99240.02;1823166;78;21188;-64
2021/05/25 20:32:17;;;;;;;8.23;2.90;;;;;;;18.42;61.37;99247.39;1868872;76;22786;-65
2021/05/25 20:38:09;;;;;;;14.80;3.58;;;;;;;18.43;61.41;99239.95;1877972;76;22296;-64
2021/05/25 20:40:45;;;;;;;8.83;2.30;;;;;;;18.40;61.45;99235.64;1889938;76;22140;-63
2021/05/25 20:43:31;;;;;;;9.98;2.65;;;;;;;18.34;61.33;99240.98;1861414;77;21200;-63
2021/05/25 20:46:25;;;;;;;8.70;2.35;;;;;;;18.40;61.62;99233.03;1868960;75;22176;-65
2021/05/25 20:49:06;;;;;;;11.43;2.60;;;;;;;18.37;61.69;99244.84;1869868;76;22195;-66
2021/05/25 20:51:53;;;;;;;10.70;2.50;;;;;;;18.33;61.53;99236.63;1827507;78;21083;-66
2021/05/25 20:54:29;;;;;;;9.20;3.00;;;;;;;18.36;61.85;99229.18;1873942;76;28922;-64
2021/05/25 20:57:05;;;;;;;7.65;2.75;;;;;;;18.36;61.81;99239.63;1870640;76;22136;-66
2021/05/25 20:59:39;;;;;;;8.38;2.72;;;;;;;18.38;61.61;99231.33;1873866;76;27931;-66
2021/05/25 21:02:14;;;;;;;9.90;2.35;;;;;;;18.41;61.71;99236.50;1870672;76;22149;-65
2021/05/25 21:04:54;;;;;;;4.85;2.40;;;;;;;18.40;61.70;99232.17;1889870;76;22152;-65
2021/05/25 21:07:30;;;;;;;9.68;2.10;;;;;;;18.37;61.69;99227.86;1870551;76;22575;-65
2021/05/25 21:10:16;;;;;;;7.60;2.55;;;;;;;18.31;61.70;99228.39;1827509;78;21138;-65
2021/05/25 21:12:51;;;;;;;9.83;2.98;;;;;;;18.35;61.74;99224.41;1870599;76;22596;-65
2021/05/25 21:15:26;;;;;;;6.08;3.08;;;;;;;18.37;61.91;99224.39;1870609;76;22137;-65
2021/05/25 21:18:03;;;;;;;8.15;2.80;;;;;;;18.35;61.94;99223.55;1854548;76;27901;-68
2021/05/25 21:20:38;;;;;;;8.83;3.25;;;;;;;18.35;61.94;99220.94;1854715;76;27925;-63
2021/05/25 21:23:14;;;;;;;10.40;2.90;;;;;;;18.36;62.06;99231.34;1870565;76;22101;-62
2021/05/25 21:25:48;;;;;;;11.05;3.55;;;;;;;18.32;62.14;99220.96;1870645;76;22136;-63
2021/05/25 21:28:35;;;;;;;11.65;3.33;;;;;;;18.22;62.27;99208.52;1827489;78;21102;-64
2021/05/25 21:31:18;;;;;;;9.88;3.00;;;;;;;18.26;62.49;99215.84;1889875;76;22132;-64
2021/05/25 21:33:53;;;;;;;9.70;3.42;;;;;;;18.23;62.68;99220.67;1870599;76;22171;-64
2021/05/25 21:36:47;;;;;;;9.95;3.10;;;;;;;18.18;62.77;99213.36;1865857;75;22185;-63
2021/05/25 21:39:21;;;;;;;6.62;2.95;;;;;;;18.15;62.92;99213.41;1870654;76;22124;-64
2021/05/25 21:42:02;;;;;;;7.40;2.83;;;;;;;18.16;62.99;99211.20;1869704;76;22133;-65
2021/05/25 21:44:37;;;;;;;8.75;3.33;;;;;;;18.15;63.03;99200.36;1870561;76;22128;-64
2021/05/25 21:47:19;;;;;;;7.95;3.45;;;;;;;18.12;63.15;99209.10;1869723;76;22575;-64
2021/05/25 21:50:16;;;;;;;7.42;2.75;;;;;;;18.11;63.17;99206.50;1880159;75;22200;-64
2021/05/25 21:52:48;;;;;;;9.10;3.20;;;;;;;18.10;63.22;99204.34;1870817;76;22144;-65
2021/05/25 21:55:23;;;;;;;11.93;3.05;;;;;;;18.05;63.32;99191.80;1889954;76;22543;-63
2021/05/25 21:57:57;;;;;;;6.37;2.47;;;;;;;18.03;63.63;99204.45;1870742;76;22137;-65
2021/05/25 22:00:33;;;;;;;7.42;3.67;;;;;;;17.97;63.68;99199.75;1870658;76;22117;-64
2021/05/25 22:03:07;;;;;;;5.97;2.40;;;;;;;17.95;63.97;99196.74;1870660;76;22141;-63
2021/05/25 22:05:42;;;;;;;6.45;2.85;;;;;;;17.91;64.11;99197.25;1889927;76;22140;-64
2021/05/25 22:08:17;;;;;;;8.30;3.20;;;;;;;17.88;64.27;99199.02;1870614;76;22188;-63
2021/05/25 22:10:57;;;;;;;7.80;3.10;;;;;;;17.84;64.44;99200.83;1869759;76;22129;-64
2021/05/25 22:13:32;;;;;;;10.30;2.98;;;;;;;17.83;64.65;99198.23;1870623;76;22121;-64
2021/05/25 22:16:07;;;;;;;8.33;3.50;;;;;;;17.79;64.83;99201.30;1870620;76;22141;-64
2021/05/25 22:18:41;;;;;;;6.22;3.08;;;;;;;17.72;65.15;99183.55;1870670;76;22145;-64
2021/05/25 22:21:16;;;;;;;9.18;3.58;;;;;;;17.67;65.45;99184.06;1870623;76;22133;-64
2021/05/25 22:23:52;;;;;;;10.23;3.52;;;;;;;17.64;65.59;99180.19;1854573;76;27928;-63
2021/05/25 22:26:27;;;;;;;9.25;3.25;;;;;;;17.64;65.72;99183.25;1870592;76;22563;-65
2021/05/25 22:29:03;;;;;;;4.72;3.02;;;;;;;17.63;65.81;99181.51;1870612;76;22133;-63
2021/05/25 22:31:38;;;;;;;11.65;3.87;;;;;;;17.61;66.01;99184.61;1854736;76;27907;-65
2021/05/25 22:34:12;;;;;;;5.75;3.42;;;;;;;17.57;66.18;99179.41;1870621;76;22141;-64
2021/05/25 22:36:47;;;;;;;9.10;3.70;;;;;;;17.52;66.44;99182.52;1870598;76;22608;-62
2021/05/25 22:39:21;;;;;;;10.13;4.28;;;;;;;17.48;66.68;99178.25;1889896;76;22182;-62
2021/05/25 22:41:56;;;;;;;14.40;4.15;;;;;;;17.45;66.97;99174.34;1870645;76;22560;-65
2021/05/25 22:44:36;;;;;;;10.70;4.50;;;;;;;17.39;67.28;99179.66;1889867;76;22619;-65
2021/05/25 22:47:11;;;;;;;12.65;4.30;;;;;;;17.35;67.51;99170.14;1889888;76;22129;-65
2021/05/25 22:49:45;;;;;;;9.38;3.60;;;;;;;17.30;67.83;99179.77;1870622;76;22128;-64
2021/05/25 22:52:21;;;;;;;10.55;4.47;;;;;;;17.26;67.92;99175.50;1870527;76;22141;-63
2021/05/25 22:55:02;;;;;;;10.63;4.30;;;;;;;17.24;67.95;99152.48;1869743;76;22153;-64
2021/05/25 22:57:37;;;;;;;8.30;4.12;;;;;;;17.22;68.27;99168.58;1870601;76;22539;-64
2021/05/25 23:00:21;;;;;;;7.65;3.62;;;;;;;17.20;68.41;99162.52;1869693;76;22161;-62
2021/05/25 23:02:56;;;;;;;8.53;3.98;;;;;;;17.17;68.45;99162.56;1889921;76;22540;-66
2021/05/25 23:05:31;;;;;;;5.97;3.42;;;;;;;17.18;68.40;99159.09;1889975;76;22143;-64
2021/05/25 23:08:05;;;;;;;10.70;3.92;;;;;;;17.19;68.49;99158.19;1870589;76;22148;-64
2021/05/25 23:10:40;;;;;;;6.30;3.35;;;;;;;17.16;68.71;99157.79;1870617;76;22109;-65
2021/05/25 23:13:14;;;;;;;12.47;3.50;;;;;;;17.12;68.95;99150.88;1870620;76;22140;-62
2021/05/25 23:15:49;;;;;;;9.48;3.62;;;;;;;17.10;69.03;99152.22;1870598;76;22112;-62
2021/05/25 23:18:24;;;;;;;6.30;3.52;;;;;;;17.09;68.96;99155.69;1870606;76;22137;-63
2021/05/25 23:21:01;;;;;;;7.33;3.50;;;;;;;17.06;69.21;99150.52;1870636;76;22141;-64
2021/05/25 23:23:47;;;;;;;5.70;3.45;;;;;;;17.03;69.25;99151.01;1827777;77;21182;-64
2021/05/25 23:26:21;;;;;;;6.85;3.77;;;;;;;17.06;69.21;99147.91;1857641;77;22094;-63
2021/05/25 23:28:57;;;;;;;7.33;2.87;;;;;;;17.06;69.27;99151.81;1889953;76;22340;-64
2021/05/25 23:31:33;;;;;;;7.85;3.25;;;;;;;17.07;69.30;99152.67;1854861;76;27922;-62
2021/05/25 23:34:19;;;;;;;7.28;3.67;;;;;;;17.05;69.20;99155.32;1827800;77;21147;-66